createdAt,value
2023-01-18T00:04:09.389Z,1.27
2023-01-18T00:09:11.150Z,1.30
2023-01-18T00:14:12.883Z,1.92
2023-01-18T00:19:14.667Z,1.92
2023-01-18T00:24:16.301Z,1.90
2023-01-18T00:29:18.031Z,2.53
2023-01-18T00:34:19.771Z,2.25
2023-01-18T00:39:21.726Z,1.83
2023-01-18T00:44:23.321Z,1.70
2023-01-18T00:49:25.139Z,1.88
2023-01-18T00:54:26.746Z,1.80
2023-01-18T00:59:28.390Z,1.85
2023-01-18T01:04:49.061Z,2.35
2023-01-18T01:09:50.859Z,2.85
2023-01-18T01:15:11.295Z,3.33
2023-01-18T01:20:31.775Z,3.20
2023-01-18T01:25:54.737Z,2.50
2023-01-18T01:31:00.896Z,2.00
2023-01-18T01:36:05.951Z,1.90
2023-01-18T01:41:16.386Z,1.40
2023-01-18T01:46:56.146Z,2.10
2023-01-18T01:52:08.434Z,2.10
2023-01-18T01:57:18.238Z,2.60
2023-01-18T02:02:20.274Z,2.70
2023-01-18T02:07:23.942Z,2.80
2023-01-18T02:12:27.120Z,2.53
2023-01-18T02:17:32.812Z,2.67
2023-01-18T02:22:59.622Z,3.25
2023-01-18T02:28:13.635Z,3.10
2023-01-18T02:33:27.687Z,2.40
2023-01-18T02:38:44.636Z,1.92
2023-01-18T02:44:10.129Z,1.98
2023-01-18T02:49:20.916Z,2.42
2023-01-18T02:54:24.334Z,2.78
2023-01-18T02:59:39.966Z,2.88
2023-01-18T03:04:57.064Z,2.47
2023-01-18T03:10:03.037Z,3.03
2023-01-18T03:15:14.160Z,4.60
2023-01-18T03:20:21.042Z,5.05
2023-01-18T03:25:28.351Z,5.35
2023-01-18T03:30:52.143Z,5.90
2023-01-18T03:35:56.170Z,5.80
2023-01-18T03:41:00.721Z,7.50
2023-01-18T03:46:03.081Z,7.07
2023-01-18T03:51:22.669Z,6.50
2023-01-18T03:57:28.377Z,7.25
2023-01-18T04:02:30.012Z,6.10
2023-01-18T04:07:32.391Z,6.00
2023-01-18T04:12:35.047Z,5.18
2023-01-18T04:17:36.906Z,4.85
2023-01-18T04:22:38.485Z,4.85
2023-01-18T04:27:40.140Z,4.88
2023-01-18T04:32:42.878Z,4.90
2023-01-18T04:37:44.536Z,4.65
2023-01-18T04:42:52.337Z,5.07
2023-01-18T04:47:53.991Z,5.10
2023-01-18T04:52:56.071Z,4.68
2023-01-18T04:57:58.350Z,5.20
2023-01-18T05:03:00.429Z,4.78
2023-01-18T05:08:02.261Z,9.25
2023-01-18T05:13:03.892Z,5.88
2023-01-18T05:18:07.119Z,4.97
2023-01-18T05:23:11.161Z,4.80
2023-01-18T05:28:12.890Z,4.82
2023-01-18T05:33:14.642Z,4.30
2023-01-18T05:38:16.875Z,4.80
2023-01-18T05:43:23.297Z,5.22
2023-01-18T05:48:25.822Z,5.90
2023-01-18T05:53:27.429Z,9.90
2023-01-18T05:58:29.566Z,16.48
2023-01-18T06:03:31.169Z,11.63
2023-01-18T06:08:33.660Z,6.90
2023-01-18T06:13:35.595Z,6.57
2023-01-18T06:18:38.435Z,7.03
2023-01-18T06:23:40.263Z,7.05
2023-01-18T06:28:41.908Z,9.48
2023-01-18T06:33:43.518Z,6.78
2023-01-18T06:38:45.121Z,5.68
2023-01-18T06:43:46.803Z,5.75
2023-01-18T06:48:48.641Z,6.53
2023-01-18T06:53:50.246Z,6.03
2023-01-18T06:58:52.022Z,5.38
2023-01-18T07:03:53.828Z,6.03
2023-01-18T07:08:55.459Z,5.43
2023-01-18T07:13:57.267Z,6.38
2023-01-18T07:19:01.730Z,7.45
2023-01-18T07:24:03.413Z,7.07
2023-01-18T07:29:05.085Z,8.13
2023-01-18T07:34:07.222Z,12.07
2023-01-18T07:39:10.122Z,13.38
2023-01-18T07:44:11.971Z,12.18
2023-01-18T07:49:13.602Z,14.60
2023-01-18T07:54:17.092Z,17.23
2023-01-18T07:59:18.730Z,15.68
2023-01-18T08:04:20.524Z,16.55
2023-01-18T08:09:22.314Z,16.25
2023-01-18T08:14:23.918Z,19.15
2023-01-18T08:19:25.574Z,15.98
2023-01-18T08:24:29.253Z,15.73
2023-01-18T08:29:30.952Z,15.60
2023-01-18T08:34:32.574Z,15.20
2023-01-18T08:39:34.160Z,14.57
2023-01-18T08:44:35.831Z,13.65
2023-01-18T08:49:37.485Z,11.10
2023-01-18T08:54:39.304Z,10.32
2023-01-18T08:59:40.907Z,11.57
2023-01-18T09:04:44.072Z,12.43
2023-01-18T09:09:45.733Z,10.18
2023-01-18T09:14:47.399Z,10.43
2023-01-18T09:19:48.986Z,9.60
2023-01-18T09:24:51.298Z,10.10
2023-01-18T09:29:53.028Z,9.23
2023-01-18T09:34:54.904Z,10.18
2023-01-18T09:39:56.594Z,8.50
2023-01-18T09:45:00.889Z,7.18
2023-01-18T09:50:14.770Z,8.02
2023-01-18T09:55:33.244Z,7.70
2023-01-18T10:00:40.074Z,7.85
2023-01-18T10:05:53.038Z,7.25
2023-01-18T10:11:11.120Z,6.38
2023-01-18T10:16:14.951Z,5.93
2023-01-18T10:21:22.407Z,7.03
2023-01-18T10:26:30.695Z,5.90
2023-01-18T10:32:00.622Z,7.93
2023-01-18T10:37:14.606Z,6.40
2023-01-18T10:42:21.891Z,6.97
2023-01-18T10:47:23.727Z,8.80
2023-01-18T10:52:28.371Z,8.18
2023-01-18T10:57:35.034Z,9.43
2023-01-18T11:02:38.479Z,8.27
2023-01-18T11:07:40.559Z,7.13
2023-01-18T11:12:48.027Z,7.22
2023-01-18T11:18:00.271Z,7.35
2023-01-18T11:23:03.808Z,5.60
2023-01-18T11:28:14.085Z,5.80
2023-01-18T11:33:21.704Z,6.22
2023-01-18T11:38:28.531Z,5.70
2023-01-18T11:43:34.063Z,4.85
2023-01-18T11:48:48.588Z,4.80
2023-01-18T11:54:06.926Z,4.82
2023-01-18T11:59:25.528Z,5.00
2023-01-18T12:04:39.967Z,5.20
2023-01-18T12:09:57.967Z,2.78
2023-01-18T12:15:05.633Z,3.40
2023-01-18T12:20:37.989Z,4.72
2023-01-18T12:26:11.914Z,2.90
2023-01-18T12:31:25.127Z,2.50
2023-01-18T12:36:32.743Z,2.80
2023-01-18T12:41:37.886Z,3.42
2023-01-18T12:47:06.081Z,2.65
2023-01-18T12:52:18.949Z,2.05
2023-01-18T12:57:23.282Z,2.40
2023-01-18T13:02:36.785Z,2.70
2023-01-18T13:07:41.933Z,4.30
2023-01-18T13:12:44.876Z,2.90
2023-01-18T13:17:57.894Z,2.75
2023-01-18T13:23:07.790Z,2.67
2023-01-18T13:28:25.143Z,2.28
2023-01-18T13:33:30.680Z,2.60
2023-01-18T13:38:41.563Z,2.10
2023-01-18T13:43:43.639Z,1.23
2023-01-18T13:49:02.498Z,0.95
2023-01-18T13:54:04.310Z,1.88
2023-01-18T13:59:12.168Z,1.10
2023-01-18T14:04:22.693Z,2.15
2023-01-18T14:09:46.649Z,1.20
2023-01-18T14:14:54.796Z,0.63
2023-01-18T14:20:29.239Z,0.70
2023-01-18T14:25:51.815Z,0.70
2023-01-18T14:30:58.560Z,1.48
2023-01-18T14:36:01.931Z,1.20
2023-01-18T14:41:06.779Z,0.88
2023-01-18T14:46:16.811Z,0.60
2023-01-18T14:51:24.177Z,0.70
2023-01-18T14:56:31.972Z,0.60
2023-01-18T15:01:37.169Z,0.57
2023-01-18T15:07:04.724Z,0.50
2023-01-18T15:12:10.722Z,0.70
2023-01-18T15:17:21.666Z,0.50
2023-01-18T15:22:32.437Z,0.88
2023-01-18T15:27:34.139Z,0.85
2023-01-18T15:32:36.553Z,1.15
2023-01-18T15:37:38.330Z,2.20
2023-01-18T15:42:47.017Z,2.13
2023-01-18T15:47:51.929Z,2.83
2023-01-18T15:53:06.245Z,2.38
2023-01-18T15:58:18.858Z,2.22
2023-01-18T16:03:22.598Z,2.40
2023-01-18T16:08:24.929Z,2.70
2023-01-18T16:13:26.512Z,3.00
2023-01-18T16:18:28.174Z,2.95
2023-01-18T16:23:30.073Z,2.58
2023-01-18T16:28:31.804Z,2.50
2023-01-18T16:33:34.233Z,2.90
2023-01-18T16:38:36.101Z,3.28
2023-01-18T16:43:37.840Z,3.83
2023-01-18T16:48:39.535Z,5.80
2023-01-18T16:53:41.503Z,4.55
2023-01-18T16:58:43.737Z,5.15
2023-01-18T17:03:45.423Z,11.25
2023-01-18T17:08:47.599Z,11.15
2023-01-18T17:13:50.238Z,11.60
2023-01-18T17:18:51.944Z,7.85
2023-01-18T17:23:53.624Z,11.40
2023-01-18T17:28:55.246Z,5.45
2023-01-18T17:33:57.075Z,6.47
2023-01-18T17:38:58.738Z,5.47
2023-01-18T17:44:00.368Z,4.22
2023-01-18T17:49:02.774Z,7.40
2023-01-18T17:54:10.251Z,11.38
2023-01-18T17:59:15.843Z,9.65
2023-01-18T18:04:17.523Z,9.60
2023-01-18T18:09:19.208Z,18.98
2023-01-18T18:14:20.959Z,10.57
2023-01-18T18:19:22.619Z,9.18
2023-01-18T18:24:24.624Z,13.40
2023-01-18T18:29:26.309Z,9.50
2023-01-18T18:34:30.098Z,7.07
2023-01-18T18:39:32.938Z,8.10
2023-01-18T18:44:34.566Z,7.05
2023-01-18T18:49:36.173Z,7.15
2023-01-18T18:54:37.940Z,7.28
2023-01-18T18:59:39.608Z,4.90
2023-01-18T19:04:41.381Z,5.03
2023-01-18T19:09:43.254Z,5.53
2023-01-18T19:14:44.991Z,5.50
2023-01-18T19:19:46.615Z,6.20
2023-01-18T19:24:48.749Z,7.07
2023-01-18T19:29:52.635Z,7.68
2023-01-18T19:34:54.749Z,8.80
2023-01-18T19:39:56.614Z,7.93
2023-01-18T19:44:59.428Z,9.20
2023-01-18T19:50:03.103Z,8.65
2023-01-18T19:55:05.370Z,9.60
2023-01-18T20:00:08.392Z,9.07
2023-01-18T20:10:20.162Z,10.80
2023-01-18T20:15:23.045Z,10.45
2023-01-18T20:20:32.558Z,12.55
2023-01-18T20:25:34.589Z,10.75
2023-01-18T20:30:36.484Z,11.32
2023-01-18T20:35:38.260Z,10.95
2023-01-18T20:40:40.437Z,9.15
2023-01-18T20:45:42.127Z,12.15
2023-01-18T20:50:43.818Z,13.82
2023-01-18T20:55:45.806Z,13.70
2023-01-18T21:00:47.544Z,13.82
2023-01-18T21:05:49.281Z,17.00
2023-01-18T21:10:51.479Z,15.32
2023-01-18T21:15:58.378Z,15.35
2023-01-18T21:21:00.448Z,14.93
2023-01-18T21:26:02.240Z,15.00
2023-01-18T21:31:05.129Z,19.45
2023-01-18T21:36:11.482Z,20.35
2023-01-18T21:41:31.651Z,17.42
2023-01-18T21:46:33.554Z,17.98
2023-01-18T21:51:53.595Z,16.98
2023-01-18T21:56:55.515Z,15.63
2023-01-18T22:01:57.232Z,17.05
2023-01-18T22:06:59.450Z,18.35
2023-01-18T22:12:01.233Z,17.23
2023-01-18T22:17:03.034Z,17.27
2023-01-18T22:22:04.835Z,14.48
2023-01-18T22:27:08.063Z,14.82
2023-01-18T22:32:09.706Z,13.40
2023-01-18T22:37:11.313Z,17.65
2023-01-18T22:42:13.119Z,15.77
2023-01-18T22:47:14.779Z,18.27
2023-01-18T22:52:16.658Z,19.95
2023-01-18T22:57:18.315Z,18.33
2023-01-18T23:02:20.207Z,16.98
2023-01-18T23:07:21.904Z,13.68
2023-01-18T23:12:23.493Z,10.32
2023-01-18T23:17:40.310Z,9.40
2023-01-18T23:22:41.972Z,7.97
2023-01-18T23:27:43.684Z,6.97
2023-01-18T23:32:45.520Z,6.88
2023-01-18T23:37:47.161Z,5.80
2023-01-18T23:43:07.456Z,5.55
2023-01-18T23:48:38.363Z,6.75
2023-01-18T23:53:58.471Z,6.75
2023-01-18T23:59:00.448Z,6.43
